sensor_id;sensor_type;location;lat;lon;timestamp;P1;durP1;ratioP1;P2;durP2;ratioP2
35245;SDS011;21379;50.962;6.960;2022-10-16T00:00:46;5.03;;;1.80;;
35245;SDS011;21379;50.962;6.960;2022-10-16T00:03:13;7.03;;;1.90;;
35245;SDS011;21379;50.962;6.960;2022-10-16T00:05:41;4.85;;;2.20;;
35245;SDS011;21379;50.962;6.960;2022-10-16T00:08:10;9.65;;;2.65;;
35245;SDS011;21379;50.962;6.960;2022-10-16T00:10:38;2.95;;;1.33;;
35245;SDS011;21379;50.962;6.960;2022-10-16T00:13:05;3.70;;;1.55;;
35245;SDS011;21379;50.962;6.960;2022-10-16T00:15:33;3.47;;;1.70;;
35245;SDS011;21379;50.962;6.960;2022-10-16T00:18:02;3.08;;;1.42;;
35245;SDS011;21379;50.962;6.960;2022-10-16T00:20:29;2.83;;;1.92;;
35245;SDS011;21379;50.962;6.960;2022-10-16T00:22:58;3.00;;;1.75;;
35245;SDS011;21379;50.962;6.960;2022-10-16T00:25:26;3.00;;;1.42;;
35245;SDS011;21379;50.962;6.960;2022-10-16T00:27:53;2.33;;;1.73;;
35245;SDS011;21379;50.962;6.960;2022-10-16T00:30:20;3.17;;;1.60;;
35245;SDS011;21379;50.962;6.960;2022-10-16T00:32:48;2.30;;;1.13;;
35245;SDS011;21379;50.962;6.960;2022-10-16T00:35:15;6.65;;;1.60;;
35245;SDS011;21379;50.962;6.960;2022-10-16T00:37:42;3.30;;;1.80;;
35245;SDS011;21379;50.962;6.960;2022-10-16T00:40:09;6.45;;;1.88;;
35245;SDS011;21379;50.962;6.960;2022-10-16T00:42:37;3.08;;;1.70;;
35245;SDS011;21379;50.962;6.960;2022-10-16T00:45:05;4.30;;;1.70;;
35245;SDS011;21379;50.962;6.960;2022-10-16T00:47:34;1.55;;;0.88;;
35245;SDS011;21379;50.962;6.960;2022-10-16T00:50:06;1.58;;;1.27;;
35245;SDS011;21379;50.962;6.960;2022-10-16T00:52:36;2.75;;;1.10;;
35245;SDS011;21379;50.962;6.960;2022-10-16T00:55:05;2.60;;;1.15;;
35245;SDS011;21379;50.962;6.960;2022-10-16T00:57:35;1.20;;;0.88;;
35245;SDS011;21379;50.962;6.960;2022-10-16T01:00:04;1.70;;;0.75;;
35245;SDS011;21379;50.962;6.960;2022-10-16T01:02:33;4.07;;;1.10;;
35245;SDS011;21379;50.962;6.960;2022-10-16T01:05:00;1.00;;;0.88;;
35245;SDS011;21379;50.962;6.960;2022-10-16T01:07:30;1.50;;;0.70;;
35245;SDS011;21379;50.962;6.960;2022-10-16T01:10:07;1.20;;;1.10;;
35245;SDS011;21379;50.962;6.960;2022-10-16T01:12:41;2.00;;;0.90;;
35245;SDS011;21379;50.962;6.960;2022-10-16T01:15:17;1.20;;;0.70;;
35245;SDS011;21379;50.962;6.960;2022-10-16T01:17:51;0.95;;;0.63;;
35245;SDS011;21379;50.962;6.960;2022-10-16T01:20:25;1.15;;;0.90;;
35245;SDS011;21379;50.962;6.960;2022-10-16T01:23:06;2.28;;;1.10;;
35245;SDS011;21379;50.962;6.960;2022-10-16T01:25:46;2.45;;;0.88;;
35245;SDS011;21379;50.962;6.960;2022-10-16T01:28:45;1.45;;;1.13;;
35245;SDS011;21379;50.962;6.960;2022-10-16T01:31:18;1.63;;;0.88;;
35245;SDS011;21379;50.962;6.960;2022-10-16T01:33:48;2.10;;;1.00;;
35245;SDS011;21379;50.962;6.960;2022-10-16T01:36:23;0.60;;;0.60;;
35245;SDS011;21379;50.962;6.960;2022-10-16T01:38:55;1.10;;;0.70;;
35245;SDS011;21379;50.962;6.960;2022-10-16T01:41:24;2.47;;;0.73;;
35245;SDS011;21379;50.962;6.960;2022-10-16T01:43:59;0.65;;;0.63;;
35245;SDS011;21379;50.962;6.960;2022-10-16T01:46:31;1.67;;;0.90;;
35245;SDS011;21379;50.962;6.960;2022-10-16T01:49:00;2.10;;;0.90;;
35245;SDS011;21379;50.962;6.960;2022-10-16T01:51:29;2.13;;;0.70;;
35245;SDS011;21379;50.962;6.960;2022-10-16T01:53:57;1.52;;;0.80;;
35245;SDS011;21379;50.962;6.960;2022-10-16T01:56:26;0.80;;;0.63;;
35245;SDS011;21379;50.962;6.960;2022-10-16T01:58:55;1.65;;;0.93;;
35245;SDS011;21379;50.962;6.960;2022-10-16T02:01:28;1.02;;;0.80;;
35245;SDS011;21379;50.962;6.960;2022-10-16T02:03:59;1.05;;;0.85;;
35245;SDS011;21379;50.962;6.960;2022-10-16T02:06:31;3.63;;;1.75;;
35245;SDS011;21379;50.962;6.960;2022-10-16T02:08:58;2.38;;;0.88;;
35245;SDS011;21379;50.962;6.960;2022-10-16T02:11:25;1.23;;;0.88;;
35245;SDS011;21379;50.962;6.960;2022-10-16T02:13:53;3.80;;;1.05;;
35245;SDS011;21379;50.962;6.960;2022-10-16T02:16:32;3.70;;;0.90;;
35245;SDS011;21379;50.962;6.960;2022-10-16T02:19:00;1.75;;;0.98;;
35245;SDS011;21379;50.962;6.960;2022-10-16T02:21:28;0.90;;;0.75;;
35245;SDS011;21379;50.962;6.960;2022-10-16T02:24:00;1.05;;;0.93;;
35245;SDS011;21379;50.962;6.960;2022-10-16T02:26:34;1.02;;;0.65;;
35245;SDS011;21379;50.962;6.960;2022-10-16T02:29:06;1.67;;;0.80;;
35245;SDS011;21379;50.962;6.960;2022-10-16T02:31:41;1.83;;;0.90;;
35245;SDS011;21379;50.962;6.960;2022-10-16T02:34:12;1.13;;;0.75;;
35245;SDS011;21379;50.962;6.960;2022-10-16T02:36:40;1.48;;;0.70;;
35245;SDS011;21379;50.962;6.960;2022-10-16T02:39:09;4.25;;;0.50;;
35245;SDS011;21379;50.962;6.960;2022-10-16T02:41:37;1.15;;;0.57;;
35245;SDS011;21379;50.962;6.960;2022-10-16T02:44:04;1.25;;;0.70;;
35245;SDS011;21379;50.962;6.960;2022-10-16T02:46:31;4.03;;;0.50;;
35245;SDS011;21379;50.962;6.960;2022-10-16T02:48:59;2.13;;;0.70;;
35245;SDS011;21379;50.962;6.960;2022-10-16T02:51:26;1.25;;;0.50;;
35245;SDS011;21379;50.962;6.960;2022-10-16T02:53:53;2.97;;;0.70;;
35245;SDS011;21379;50.962;6.960;2022-10-16T02:56:20;1.85;;;0.70;;
35245;SDS011;21379;50.962;6.960;2022-10-16T02:58:47;0.55;;;0.55;;
35245;SDS011;21379;50.962;6.960;2022-10-16T03:01:13;1.92;;;0.82;;
35245;SDS011;21379;50.962;6.960;2022-10-16T03:03:41;0.43;;;0.40;;
35245;SDS011;21379;50.962;6.960;2022-10-16T03:06:10;0.93;;;0.70;;
35245;SDS011;21379;50.962;6.960;2022-10-16T03:08:37;0.90;;;0.50;;
35245;SDS011;21379;50.962;6.960;2022-10-16T03:11:04;1.67;;;0.70;;
35245;SDS011;21379;50.962;6.960;2022-10-16T03:13:31;0.68;;;0.60;;
35245;SDS011;21379;50.962;6.960;2022-10-16T03:15:58;1.27;;;0.50;;
35245;SDS011;21379;50.962;6.960;2022-10-16T03:18:25;1.40;;;0.70;;
35245;SDS011;21379;50.962;6.960;2022-10-16T03:20:52;4.20;;;0.85;;
35245;SDS011;21379;50.962;6.960;2022-10-16T03:23:20;1.17;;;0.80;;
35245;SDS011;21379;50.962;6.960;2022-10-16T03:25:47;3.30;;;0.73;;
35245;SDS011;21379;50.962;6.960;2022-10-16T03:28:14;1.00;;;0.65;;
35245;SDS011;21379;50.962;6.960;2022-10-16T03:30:41;1.88;;;0.85;;
35245;SDS011;21379;50.962;6.960;2022-10-16T03:33:09;0.52;;;0.50;;
35245;SDS011;21379;50.962;6.960;2022-10-16T03:35:36;1.25;;;0.82;;
35245;SDS011;21379;50.962;6.960;2022-10-16T03:38:02;1.85;;;0.30;;
35245;SDS011;21379;50.962;6.960;2022-10-16T03:40:31;0.63;;;0.60;;
35245;SDS011;21379;50.962;6.960;2022-10-16T03:42:58;1.30;;;0.45;;
35245;SDS011;21379;50.962;6.960;2022-10-16T03:45:25;1.58;;;0.50;;
35245;SDS011;21379;50.962;6.960;2022-10-16T03:47:52;1.20;;;0.73;;
35245;SDS011;21379;50.962;6.960;2022-10-16T03:50:19;2.33;;;0.80;;
35245;SDS011;21379;50.962;6.960;2022-10-16T03:52:46;0.68;;;0.50;;
35245;SDS011;21379;50.962;6.960;2022-10-16T03:55:13;1.00;;;0.50;;
35245;SDS011;21379;50.962;6.960;2022-10-16T03:57:41;1.48;;;0.82;;
35245;SDS011;21379;50.962;6.960;2022-10-16T04:00:08;0.60;;;0.60;;
35245;SDS011;21379;50.962;6.960;2022-10-16T04:02:36;0.82;;;0.40;;
35245;SDS011;21379;50.962;6.960;2022-10-16T04:05:03;3.80;;;0.73;;
35245;SDS011;21379;50.962;6.960;2022-10-16T04:07:31;2.13;;;0.90;;
35245;SDS011;21379;50.962;6.960;2022-10-16T04:09:57;1.33;;;1.23;;
35245;SDS011;21379;50.962;6.960;2022-10-16T04:12:25;1.90;;;0.75;;
35245;SDS011;21379;50.962;6.960;2022-10-16T04:14:53;1.38;;;0.30;;
35245;SDS011;21379;50.962;6.960;2022-10-16T04:17:20;0.65;;;0.50;;
35245;SDS011;21379;50.962;6.960;2022-10-16T04:19:47;0.52;;;0.32;;
35245;SDS011;21379;50.962;6.960;2022-10-16T04:22:13;0.50;;;0.40;;
35245;SDS011;21379;50.962;6.960;2022-10-16T04:24:40;0.55;;;0.55;;
35245;SDS011;21379;50.962;6.960;2022-10-16T04:27:07;0.65;;;0.55;;
35245;SDS011;21379;50.962;6.960;2022-10-16T04:29:34;1.83;;;0.70;;
35245;SDS011;21379;50.962;6.960;2022-10-16T04:32:02;1.23;;;0.45;;
35245;SDS011;21379;50.962;6.960;2022-10-16T04:34:29;1.13;;;0.60;;
35245;SDS011;21379;50.962;6.960;2022-10-16T04:36:56;2.10;;;0.47;;
35245;SDS011;21379;50.962;6.960;2022-10-16T04:39:23;0.80;;;0.70;;
35245;SDS011;21379;50.962;6.960;2022-10-16T04:41:49;0.50;;;0.40;;
35245;SDS011;21379;50.962;6.960;2022-10-16T04:44:16;0.55;;;0.50;;
35245;SDS011;21379;50.962;6.960;2022-10-16T04:46:43;2.28;;;0.73;;
35245;SDS011;21379;50.962;6.960;2022-10-16T04:49:11;0.45;;;0.40;;
35245;SDS011;21379;50.962;6.960;2022-10-16T04:51:38;0.40;;;0.40;;
35245;SDS011;21379;50.962;6.960;2022-10-16T04:54:05;1.45;;;0.60;;
35245;SDS011;21379;50.962;6.960;2022-10-16T04:56:32;0.80;;;0.60;;
35245;SDS011;21379;50.962;6.960;2022-10-16T04:59:05;4.72;;;0.35;;
35245;SDS011;21379;50.962;6.960;2022-10-16T05:01:32;0.70;;;0.40;;
35245;SDS011;21379;50.962;6.960;2022-10-16T05:03:58;0.75;;;0.32;;
35245;SDS011;21379;50.962;6.960;2022-10-16T05:06:26;1.02;;;0.65;;
35245;SDS011;21379;50.962;6.960;2022-10-16T05:08:53;0.65;;;0.38;;
35245;SDS011;21379;50.962;6.960;2022-10-16T05:11:20;1.52;;;0.50;;
35245;SDS011;21379;50.962;6.960;2022-10-16T05:13:47;0.73;;;0.40;;
35245;SDS011;21379;50.962;6.960;2022-10-16T05:16:14;0.70;;;0.40;;
35245;SDS011;21379;50.962;6.960;2022-10-16T05:18:41;0.98;;;0.68;;
35245;SDS011;21379;50.962;6.960;2022-10-16T05:21:08;2.38;;;0.50;;
35245;SDS011;21379;50.962;6.960;2022-10-16T05:23:36;0.55;;;0.50;;
35245;SDS011;21379;50.962;6.960;2022-10-16T05:26:03;9.50;;;0.88;;
35245;SDS011;21379;50.962;6.960;2022-10-16T05:28:30;0.60;;;0.60;;
35245;SDS011;21379;50.962;6.960;2022-10-16T05:30:57;2.75;;;0.60;;
35245;SDS011;21379;50.962;6.960;2022-10-16T05:33:24;0.30;;;0.30;;
35245;SDS011;21379;50.962;6.960;2022-10-16T05:35:52;0.82;;;0.60;;
35245;SDS011;21379;50.962;6.960;2022-10-16T05:38:19;1.20;;;0.50;;
35245;SDS011;21379;50.962;6.960;2022-10-16T05:40:51;1.33;;;0.60;;
35245;SDS011;21379;50.962;6.960;2022-10-16T05:43:18;0.82;;;0.40;;
35245;SDS011;21379;50.962;6.960;2022-10-16T05:45:52;1.10;;;0.50;;
35245;SDS011;21379;50.962;6.960;2022-10-16T05:48:20;0.95;;;0.43;;
35245;SDS011;21379;50.962;6.960;2022-10-16T05:50:47;6.32;;;0.40;;
35245;SDS011;21379;50.962;6.960;2022-10-16T05:53:14;2.35;;;0.70;;
35245;SDS011;21379;50.962;6.960;2022-10-16T05:55:41;1.73;;;0.40;;
35245;SDS011;21379;50.962;6.960;2022-10-16T05:58:09;3.70;;;0.85;;
35245;SDS011;21379;50.962;6.960;2022-10-16T06:00:36;3.28;;;0.60;;
35245;SDS011;21379;50.962;6.960;2022-10-16T06:03:03;0.82;;;0.60;;
35245;SDS011;21379;50.962;6.960;2022-10-16T06:05:31;2.83;;;0.85;;
35245;SDS011;21379;50.962;6.960;2022-10-16T06:07:58;0.82;;;0.65;;
35245;SDS011;21379;50.962;6.960;2022-10-16T06:10:25;3.50;;;0.95;;
35245;SDS011;21379;50.962;6.960;2022-10-16T06:12:54;2.63;;;0.60;;
35245;SDS011;21379;50.962;6.960;2022-10-16T06:15:22;3.92;;;0.85;;
35245;SDS011;21379;50.962;6.960;2022-10-16T06:17:49;0.93;;;0.75;;
35245;SDS011;21379;50.962;6.960;2022-10-16T06:20:15;2.15;;;0.75;;
35245;SDS011;21379;50.962;6.960;2022-10-16T06:22:42;1.05;;;0.90;;
35245;SDS011;21379;50.962;6.960;2022-10-16T06:25:09;1.27;;;0.60;;
35245;SDS011;21379;50.962;6.960;2022-10-16T06:27:38;1.65;;;0.90;;
35245;SDS011;21379;50.962;6.960;2022-10-16T06:30:06;0.70;;;0.63;;
35245;SDS011;21379;50.962;6.960;2022-10-16T06:32:35;1.95;;;1.00;;
35245;SDS011;21379;50.962;6.960;2022-10-16T06:35:02;1.40;;;0.60;;
35245;SDS011;21379;50.962;6.960;2022-10-16T06:37:29;0.77;;;0.60;;
35245;SDS011;21379;50.962;6.960;2022-10-16T06:39:56;3.58;;;0.95;;
35245;SDS011;21379;50.962;6.960;2022-10-16T06:42:23;3.67;;;1.00;;
35245;SDS011;21379;50.962;6.960;2022-10-16T06:44:50;0.65;;;0.60;;
35245;SDS011;21379;50.962;6.960;2022-10-16T06:47:17;2.92;;;1.13;;
35245;SDS011;21379;50.962;6.960;2022-10-16T06:49:45;2.55;;;0.82;;
35245;SDS011;21379;50.962;6.960;2022-10-16T06:52:12;1.75;;;1.15;;
35245;SDS011;21379;50.962;6.960;2022-10-16T06:54:39;0.93;;;0.75;;
35245;SDS011;21379;50.962;6.960;2022-10-16T06:57:05;3.28;;;0.93;;
35245;SDS011;21379;50.962;6.960;2022-10-16T06:59:32;6.80;;;1.02;;
35245;SDS011;21379;50.962;6.960;2022-10-16T07:01:59;2.05;;;0.95;;
35245;SDS011;21379;50.962;6.960;2022-10-16T07:04:26;1.05;;;0.80;;
35245;SDS011;21379;50.962;6.960;2022-10-16T07:06:54;1.55;;;0.80;;
35245;SDS011;21379;50.962;6.960;2022-10-16T07:09:21;1.17;;;0.68;;
35245;SDS011;21379;50.962;6.960;2022-10-16T07:11:48;6.18;;;0.75;;
35245;SDS011;21379;50.962;6.960;2022-10-16T07:14:15;4.28;;;1.42;;
35245;SDS011;21379;50.962;6.960;2022-10-16T07:16:43;2.70;;;0.73;;
35245;SDS011;21379;50.962;6.960;2022-10-16T07:19:10;0.70;;;0.70;;
35245;SDS011;21379;50.962;6.960;2022-10-16T07:21:39;1.85;;;0.95;;
35245;SDS011;21379;50.962;6.960;2022-10-16T07:24:10;2.28;;;0.60;;
35245;SDS011;21379;50.962;6.960;2022-10-16T07:26:39;0.85;;;0.80;;
35245;SDS011;21379;50.962;6.960;2022-10-16T07:29:06;0.95;;;0.70;;
35245;SDS011;21379;50.962;6.960;2022-10-16T07:31:37;1.35;;;0.65;;
35245;SDS011;21379;50.962;6.960;2022-10-16T07:34:05;4.30;;;1.00;;
35245;SDS011;21379;50.962;6.960;2022-10-16T07:36:32;1.05;;;0.88;;
35245;SDS011;21379;50.962;6.960;2022-10-16T07:38:59;0.50;;;0.50;;
35245;SDS011;21379;50.962;6.960;2022-10-16T07:41:27;4.97;;;1.00;;
35245;SDS011;21379;50.962;6.960;2022-10-16T07:43:54;2.05;;;0.75;;
35245;SDS011;21379;50.962;6.960;2022-10-16T07:46:24;1.00;;;0.65;;
35245;SDS011;21379;50.962;6.960;2022-10-16T07:48:52;0.70;;;0.70;;
35245;SDS011;21379;50.962;6.960;2022-10-16T07:51:19;1.17;;;0.77;;
35245;SDS011;21379;50.962;6.960;2022-10-16T07:53:48;2.08;;;0.75;;
35245;SDS011;21379;50.962;6.960;2022-10-16T07:56:16;1.05;;;0.60;;
35245;SDS011;21379;50.962;6.960;2022-10-16T07:58:45;2.22;;;0.70;;
35245;SDS011;21379;50.962;6.960;2022-10-16T08:01:14;0.60;;;0.50;;
35245;SDS011;21379;50.962;6.960;2022-10-16T08:03:42;4.82;;;0.80;;
35245;SDS011;21379;50.962;6.960;2022-10-16T08:06:09;0.95;;;0.80;;
35245;SDS011;21379;50.962;6.960;2022-10-16T08:08:36;5.78;;;0.70;;
35245;SDS011;21379;50.962;6.960;2022-10-16T08:11:03;1.50;;;0.98;;
35245;SDS011;21379;50.962;6.960;2022-10-16T08:13:30;1.45;;;0.60;;
35245;SDS011;21379;50.962;6.960;2022-10-16T08:15:59;0.38;;;0.38;;
35245;SDS011;21379;50.962;6.960;2022-10-16T08:18:26;0.50;;;0.50;;
35245;SDS011;21379;50.962;6.960;2022-10-16T08:20:56;4.00;;;0.90;;
35245;SDS011;21379;50.962;6.960;2022-10-16T08:23:25;0.85;;;0.70;;
35245;SDS011;21379;50.962;6.960;2022-10-16T08:25:52;3.22;;;1.75;;
35245;SDS011;21379;50.962;6.960;2022-10-16T08:28:19;2.75;;;0.68;;
35245;SDS011;21379;50.962;6.960;2022-10-16T08:30:46;0.85;;;0.52;;
35245;SDS011;21379;50.962;6.960;2022-10-16T08:33:14;1.75;;;0.45;;
35245;SDS011;21379;50.962;6.960;2022-10-16T08:35:41;2.28;;;0.50;;
35245;SDS011;21379;50.962;6.960;2022-10-16T08:38:08;1.70;;;0.50;;
35245;SDS011;21379;50.962;6.960;2022-10-16T08:40:38;0.50;;;0.50;;
35245;SDS011;21379;50.962;6.960;2022-10-16T08:43:09;1.05;;;0.45;;
35245;SDS011;21379;50.962;6.960;2022-10-16T08:45:52;3.42;;;0.30;;
35245;SDS011;21379;50.962;6.960;2022-10-16T08:48:43;0.50;;;0.40;;
35245;SDS011;21379;50.962;6.960;2022-10-16T08:51:15;1.58;;;0.60;;
35245;SDS011;21379;50.962;6.960;2022-10-16T08:53:49;2.72;;;0.20;;
35245;SDS011;21379;50.962;6.960;2022-10-16T08:56:20;0.30;;;0.20;;
35245;SDS011;21379;50.962;6.960;2022-10-16T08:58:47;0.55;;;0.50;;
35245;SDS011;21379;50.962;6.960;2022-10-16T09:01:16;2.30;;;0.20;;
35245;SDS011;21379;50.962;6.960;2022-10-16T09:06:42;0.73;;;0.57;;
35245;SDS011;21379;50.962;6.960;2022-10-16T09:09:18;0.90;;;0.70;;
35245;SDS011;21379;50.962;6.960;2022-10-16T09:12:05;1.65;;;0.55;;
35245;SDS011;21379;50.962;6.960;2022-10-16T09:14:40;0.90;;;0.32;;
35245;SDS011;21379;50.962;6.960;2022-10-16T09:17:30;3.35;;;0.63;;
35245;SDS011;21379;50.962;6.960;2022-10-16T09:20:13;1.10;;;0.30;;
35245;SDS011;21379;50.962;6.960;2022-10-16T09:22:45;1.40;;;0.60;;
35245;SDS011;21379;50.962;6.960;2022-10-16T09:25:13;1.80;;;0.40;;
35245;SDS011;21379;50.962;6.960;2022-10-16T09:27:41;2.10;;;0.20;;
35245;SDS011;21379;50.962;6.960;2022-10-16T09:30:12;0.82;;;0.40;;
35245;SDS011;21379;50.962;6.960;2022-10-16T09:32:40;2.05;;;0.30;;
35245;SDS011;21379;50.962;6.960;2022-10-16T09:35:13;2.25;;;0.40;;
35245;SDS011;21379;50.962;6.960;2022-10-16T09:37:42;1.75;;;0.40;;
35245;SDS011;21379;50.962;6.960;2022-10-16T09:40:12;3.90;;;0.80;;
35245;SDS011;21379;50.962;6.960;2022-10-16T09:42:40;0.30;;;0.30;;
35245;SDS011;21379;50.962;6.960;2022-10-16T09:45:19;0.30;;;0.20;;
35245;SDS011;21379;50.962;6.960;2022-10-16T09:47:47;2.00;;;0.20;;
35245;SDS011;21379;50.962;6.960;2022-10-16T09:50:21;0.77;;;0.32;;
35245;SDS011;21379;50.962;6.960;2022-10-16T09:52:51;0.65;;;0.35;;
35245;SDS011;21379;50.962;6.960;2022-10-16T09:55:30;0.40;;;0.28;;
35245;SDS011;21379;50.962;6.960;2022-10-16T09:57:56;2.30;;;0.35;;
35245;SDS011;21379;50.962;6.960;2022-10-16T10:00:23;1.70;;;0.30;;
35245;SDS011;21379;50.962;6.960;2022-10-16T10:02:51;1.85;;;0.35;;
35245;SDS011;21379;50.962;6.960;2022-10-16T10:05:21;0.05;;;0.05;;
35245;SDS011;21379;50.962;6.960;2022-10-16T10:07:54;0.75;;;0.17;;
35245;SDS011;21379;50.962;6.960;2022-10-16T10:10:24;0.30;;;0.30;;
35245;SDS011;21379;50.962;6.960;2022-10-16T10:12:52;0.20;;;0.20;;
35245;SDS011;21379;50.962;6.960;2022-10-16T10:15:19;0.63;;;0.25;;
35245;SDS011;21379;50.962;6.960;2022-10-16T10:17:49;1.25;;;0.30;;
35245;SDS011;21379;50.962;6.960;2022-10-16T10:20:25;1.00;;;0.30;;
35245;SDS011;21379;50.962;6.960;2022-10-16T10:22:54;0.25;;;0.20;;
35245;SDS011;21379;50.962;6.960;2022-10-16T10:25:26;0.63;;;0.40;;
35245;SDS011;21379;50.962;6.960;2022-10-16T10:31:07;1.10;;;0.40;;
35245;SDS011;21379;50.962;6.960;2022-10-16T10:33:41;4.50;;;0.65;;
35245;SDS011;21379;50.962;6.960;2022-10-16T10:36:16;0.25;;;0.20;;
35245;SDS011;21379;50.962;6.960;2022-10-16T10:38:49;0.40;;;0.40;;
35245;SDS011;21379;50.962;6.960;2022-10-16T10:41:24;1.05;;;0.20;;
35245;SDS011;21379;50.962;6.960;2022-10-16T10:44:11;1.23;;;0.55;;
35245;SDS011;21379;50.962;6.960;2022-10-16T10:46:48;0.52;;;0.20;;
35245;SDS011;21379;50.962;6.960;2022-10-16T10:49:25;0.63;;;0.20;;
35245;SDS011;21379;50.962;6.960;2022-10-16T10:52:06;0.28;;;0.20;;
35245;SDS011;21379;50.962;6.960;2022-10-16T10:54:49;1.13;;;0.30;;
35245;SDS011;21379;50.962;6.960;2022-10-16T10:57:25;2.10;;;0.38;;
35245;SDS011;21379;50.962;6.960;2022-10-16T11:00:01;1.42;;;0.40;;
35245;SDS011;21379;50.962;6.960;2022-10-16T11:02:35;1.38;;;0.57;;
35245;SDS011;21379;50.962;6.960;2022-10-16T11:08:06;2.17;;;0.30;;
35245;SDS011;21379;50.962;6.960;2022-10-16T11:10:41;0.57;;;0.50;;
35245;SDS011;21379;50.962;6.960;2022-10-16T11:13:15;0.73;;;0.28;;
35245;SDS011;21379;50.962;6.960;2022-10-16T11:15:56;0.43;;;0.20;;
35245;SDS011;21379;50.962;6.960;2022-10-16T11:18:27;0.47;;;0.20;;
35245;SDS011;21379;50.962;6.960;2022-10-16T11:20:59;1.05;;;0.30;;
35245;SDS011;21379;50.962;6.960;2022-10-16T11:23:32;0.80;;;0.38;;
35245;SDS011;21379;50.962;6.960;2022-10-16T11:28:35;3.40;;;0.82;;
35245;SDS011;21379;50.962;6.960;2022-10-16T11:31:08;0.20;;;0.13;;
35245;SDS011;21379;50.962;6.960;2022-10-16T11:33:40;0.43;;;0.20;;
35245;SDS011;21379;50.962;6.960;2022-10-16T11:36:11;8.88;;;1.10;;
35245;SDS011;21379;50.962;6.960;2022-10-16T11:38:45;2.53;;;0.30;;
35245;SDS011;21379;50.962;6.960;2022-10-16T11:41:20;0.25;;;0.20;;
35245;SDS011;21379;50.962;6.960;2022-10-16T11:43:54;0.35;;;0.13;;
35245;SDS011;21379;50.962;6.960;2022-10-16T11:46:30;0.98;;;0.40;;
35245;SDS011;21379;50.962;6.960;2022-10-16T11:49:00;0.45;;;0.20;;
35245;SDS011;21379;50.962;6.960;2022-10-16T11:51:36;0.90;;;0.30;;
35245;SDS011;21379;50.962;6.960;2022-10-16T11:54:13;0.40;;;0.20;;
35245;SDS011;21379;50.962;6.960;2022-10-16T11:56:47;1.17;;;0.25;;
35245;SDS011;21379;50.962;6.960;2022-10-16T11:59:17;2.28;;;0.50;;
35245;SDS011;21379;50.962;6.960;2022-10-16T12:01:51;0.38;;;0.28;;
35245;SDS011;21379;50.962;6.960;2022-10-16T12:04:24;0.73;;;0.10;;
35245;SDS011;21379;50.962;6.960;2022-10-16T12:06:59;2.63;;;0.22;;
35245;SDS011;21379;50.962;6.960;2022-10-16T12:09:32;0.13;;;0.13;;
35245;SDS011;21379;50.962;6.960;2022-10-16T12:12:02;0.65;;;0.30;;
35245;SDS011;21379;50.962;6.960;2022-10-16T12:14:34;0.75;;;0.25;;
35245;SDS011;21379;50.962;6.960;2022-10-16T12:19:57;0.85;;;0.50;;
35245;SDS011;21379;50.962;6.960;2022-10-16T12:22:26;1.58;;;0.22;;
35245;SDS011;21379;50.962;6.960;2022-10-16T12:24:56;0.30;;;0.20;;
35245;SDS011;21379;50.962;6.960;2022-10-16T12:27:25;0.82;;;0.20;;
35245;SDS011;21379;50.962;6.960;2022-10-16T12:29:55;0.15;;;0.15;;
35245;SDS011;21379;50.962;6.960;2022-10-16T12:32:26;2.08;;;0.30;;
35245;SDS011;21379;50.962;6.960;2022-10-16T12:34:56;0.55;;;0.28;;
35245;SDS011;21379;50.962;6.960;2022-10-16T12:37:25;0.17;;;0.13;;
35245;SDS011;21379;50.962;6.960;2022-10-16T12:39:57;0.10;;;0.10;;
35245;SDS011;21379;50.962;6.960;2022-10-16T12:42:32;0.82;;;0.28;;
35245;SDS011;21379;50.962;6.960;2022-10-16T12:47:37;1.42;;;0.30;;
35245;SDS011;21379;50.962;6.960;2022-10-16T12:50:24;4.25;;;0.30;;
35245;SDS011;21379;50.962;6.960;2022-10-16T12:53:02;0.30;;;0.25;;
35245;SDS011;21379;50.962;6.960;2022-10-16T12:55:34;0.43;;;0.10;;
35245;SDS011;21379;50.962;6.960;2022-10-16T12:58:12;2.35;;;0.40;;
35245;SDS011;21379;50.962;6.960;2022-10-16T13:00:53;0.47;;;0.20;;
35245;SDS011;21379;50.962;6.960;2022-10-16T13:03:45;2.47;;;0.20;;
35245;SDS011;21379;50.962;6.960;2022-10-16T13:06:26;0.40;;;0.30;;
35245;SDS011;21379;50.962;6.960;2022-10-16T13:14:46;0.10;;;0.10;;
35245;SDS011;21379;50.962;6.960;2022-10-16T13:17:25;0.65;;;0.30;;
35245;SDS011;21379;50.962;6.960;2022-10-16T13:20:03;0.32;;;0.20;;
35245;SDS011;21379;50.962;6.960;2022-10-16T13:22:39;2.63;;;0.30;;
35245;SDS011;21379;50.962;6.960;2022-10-16T13:25:18;0.10;;;0.10;;
35245;SDS011;21379;50.962;6.960;2022-10-16T13:27:55;0.25;;;0.22;;
35245;SDS011;21379;50.962;6.960;2022-10-16T13:30:23;1.77;;;0.30;;
35245;SDS011;21379;50.962;6.960;2022-10-16T13:32:54;0.20;;;0.10;;
35245;SDS011;21379;50.962;6.960;2022-10-16T13:35:26;0.68;;;0.30;;
35245;SDS011;21379;50.962;6.960;2022-10-16T13:38:05;2.17;;;0.25;;
35245;SDS011;21379;50.962;6.960;2022-10-16T13:40:47;0.47;;;0.35;;
35245;SDS011;21379;50.962;6.960;2022-10-16T13:43:17;1.75;;;0.30;;
35245;SDS011;21379;50.962;6.960;2022-10-16T13:45:52;3.47;;;0.82;;
35245;SDS011;21379;50.962;6.960;2022-10-16T13:48:20;0.57;;;0.38;;
35245;SDS011;21379;50.962;6.960;2022-10-16T13:50:57;0.20;;;0.10;;
35245;SDS011;21379;50.962;6.960;2022-10-16T13:53:25;0.15;;;0.10;;
35245;SDS011;21379;50.962;6.960;2022-10-16T13:55:52;5.03;;;0.60;;
35245;SDS011;21379;50.962;6.960;2022-10-16T13:58:20;4.03;;;0.93;;
35245;SDS011;21379;50.962;6.960;2022-10-16T14:00:54;2.53;;;0.40;;
35245;SDS011;21379;50.962;6.960;2022-10-16T14:03:23;0.25;;;0.25;;
35245;SDS011;21379;50.962;6.960;2022-10-16T14:05:52;1.27;;;0.70;;
35245;SDS011;21379;50.962;6.960;2022-10-16T14:08:21;1.05;;;0.40;;
35245;SDS011;21379;50.962;6.960;2022-10-16T14:10:50;0.32;;;0.20;;
35245;SDS011;21379;50.962;6.960;2022-10-16T14:13:19;1.45;;;0.35;;
35245;SDS011;21379;50.962;6.960;2022-10-16T14:15:54;0.57;;;0.20;;
35245;SDS011;21379;50.962;6.960;2022-10-16T14:18:24;1.50;;;0.38;;
35245;SDS011;21379;50.962;6.960;2022-10-16T14:20:53;2.10;;;0.40;;
35245;SDS011;21379;50.962;6.960;2022-10-16T14:23:22;0.28;;;0.20;;
35245;SDS011;21379;50.962;6.960;2022-10-16T14:25:54;0.40;;;0.40;;
35245;SDS011;21379;50.962;6.960;2022-10-16T14:28:34;1.55;;;0.43;;
35245;SDS011;21379;50.962;6.960;2022-10-16T14:31:02;0.57;;;0.20;;
35245;SDS011;21379;50.962;6.960;2022-10-16T14:33:49;0.20;;;0.20;;
35245;SDS011;21379;50.962;6.960;2022-10-16T14:36:16;0.25;;;0.25;;
35245;SDS011;21379;50.962;6.960;2022-10-16T14:38:48;0.60;;;0.30;;
35245;SDS011;21379;50.962;6.960;2022-10-16T14:41:19;0.45;;;0.20;;
35245;SDS011;21379;50.962;6.960;2022-10-16T14:43:49;0.95;;;0.30;;
35245;SDS011;21379;50.962;6.960;2022-10-16T14:46:19;2.38;;;0.65;;
35245;SDS011;21379;50.962;6.960;2022-10-16T14:48:51;0.93;;;0.50;;
35245;SDS011;21379;50.962;6.960;2022-10-16T14:51:22;1.15;;;0.30;;
35245;SDS011;21379;50.962;6.960;2022-10-16T14:53:49;0.50;;;0.32;;
35245;SDS011;21379;50.962;6.960;2022-10-16T14:56:17;0.95;;;0.60;;
35245;SDS011;21379;50.962;6.960;2022-10-16T14:58:46;1.20;;;0.47;;
35245;SDS011;21379;50.962;6.960;2022-10-16T15:01:14;0.52;;;0.38;;
35245;SDS011;21379;50.962;6.960;2022-10-16T15:03:41;0.93;;;0.38;;
35245;SDS011;21379;50.962;6.960;2022-10-16T15:06:09;0.50;;;0.40;;
35245;SDS011;21379;50.962;6.960;2022-10-16T15:08:37;0.82;;;0.50;;
35245;SDS011;21379;50.962;6.960;2022-10-16T15:11:05;0.95;;;0.40;;
35245;SDS011;21379;50.962;6.960;2022-10-16T15:13:35;0.55;;;0.30;;
35245;SDS011;21379;50.962;6.960;2022-10-16T15:16:02;3.90;;;0.75;;
35245;SDS011;21379;50.962;6.960;2022-10-16T15:18:30;0.63;;;0.50;;
35245;SDS011;21379;50.962;6.960;2022-10-16T15:20:57;0.60;;;0.32;;
35245;SDS011;21379;50.962;6.960;2022-10-16T15:23:24;1.42;;;0.47;;
35245;SDS011;21379;50.962;6.960;2022-10-16T15:25:52;2.30;;;0.40;;
35245;SDS011;21379;50.962;6.960;2022-10-16T15:28:20;1.45;;;0.43;;